sensor_id;sensor_type;location;lat;lon;timestamp;pressure;altitude;pressure_sealevel;temperature;humidity
77639;BME280;66802;52.574;14.398;2024-01-15T00:01:57;99354.13;;;1.04;100.00
77639;BME280;66802;52.574;14.398;2024-01-15T00:04:47;99356.78;;;1.04;100.00
77639;BME280;66802;52.574;14.398;2024-01-15T00:07:43;99340.84;;;1.04;100.00
77639;BME280;66802;52.574;14.398;2024-01-15T00:11:09;99340.00;;;1.03;100.00
77639;BME280;66802;52.574;14.398;2024-01-15T00:14:01;99334.56;;;1.05;100.00
77639;BME280;66802;52.574;14.398;2024-01-15T00:16:47;99329.25;;;1.05;100.00
77639;BME280;66802;52.574;14.398;2024-01-15T00:20:09;99317.91;;;1.03;100.00
77639;BME280;66802;52.574;14.398;2024-01-15T00:23:18;99317.03;;;1.02;100.00
77639;BME280;66802;52.574;14.398;2024-01-15T00:25:54;99301.69;;;1.06;100.00
77639;BME280;66802;52.574;14.398;2024-01-15T00:28:42;99300.72;;;1.07;100.00
77639;BME280;66802;52.574;14.398;2024-01-15T00:31:19;99300.44;;;1.10;100.00
77639;BME280;66802;52.574;14.398;2024-01-15T00:34:08;99289.56;;;1.13;100.00
77639;BME280;66802;52.574;14.398;2024-01-15T00:36:57;99281.72;;;1.12;100.00
77639;BME280;66802;52.574;14.398;2024-01-15T00:39:41;99268.31;;;1.13;100.00
77639;BME280;66802;52.574;14.398;2024-01-15T00:42:08;99266.63;;;1.12;100.00
77639;BME280;66802;52.574;14.398;2024-01-15T00:44:44;99257.69;;;1.13;100.00
77639;BME280;66802;52.574;14.398;2024-01-15T00:47:45;99279.41;;;1.18;100.00
77639;BME280;66802;52.574;14.398;2024-01-15T00:50:43;99270.25;;;1.11;100.00
77639;BME280;66802;52.574;14.398;2024-01-15T00:53:40;99267.09;;;1.17;100.00
77639;BME280;66802;52.574;14.398;2024-01-15T00:59:40;99258.41;;;1.15;100.00
77639;BME280;66802;52.574;14.398;2024-01-15T04:08:42;99127.72;;;0.70;97.70
77639;BME280;66802;52.574;14.398;2024-01-15T04:11:20;99129.78;;;0.66;97.13
77639;BME280;66802;52.574;14.398;2024-01-15T04:13:47;99133.16;;;0.68;97.84
77639;BME280;66802;52.574;14.398;2024-01-15T04:16:21;99118.19;;;0.67;97.05
77639;BME280;66802;52.574;14.398;2024-01-15T04:18:53;99127.84;;;0.68;97.01
77639;BME280;66802;52.574;14.398;2024-01-15T04:21:21;99119.88;;;0.68;97.08
77639;BME280;66802;52.574;14.398;2024-01-15T04:23:57;99125.19;;;0.68;97.33
77639;BME280;66802;52.574;14.398;2024-01-15T04:26:25;99118.78;;;0.71;97.25
77639;BME280;66802;52.574;14.398;2024-01-15T04:28:54;99124.94;;;0.71;96.84
77639;BME280;66802;52.574;14.398;2024-01-15T04:31:24;99119.75;;;0.70;96.84
77639;BME280;66802;52.574;14.398;2024-01-15T04:33:51;99132.63;;;0.75;97.62
77639;BME280;66802;52.574;14.398;2024-01-15T04:36:19;99126.63;;;0.72;96.81
77639;BME280;66802;52.574;14.398;2024-01-15T04:38:54;99109.25;;;0.68;96.28
77639;BME280;66802;52.574;14.398;2024-01-15T04:41:23;99102.59;;;0.74;96.19
77639;BME280;66802;52.574;14.398;2024-01-15T04:43:54;99096.56;;;0.72;96.57
77639;BME280;66802;52.574;14.398;2024-01-15T04:46:21;99104.53;;;0.72;95.97
77639;BME280;66802;52.574;14.398;2024-01-15T04:48:57;99097.28;;;0.74;95.73
77639;BME280;66802;52.574;14.398;2024-01-15T04:51:31;99097.41;;;0.72;96.14
77639;BME280;66802;52.574;14.398;2024-01-15T04:54:08;99108.44;;;0.78;95.99
77639;BME280;66802;52.574;14.398;2024-01-15T04:56:51;99087.34;;;0.76;95.63
77639;BME280;66802;52.574;14.398;2024-01-15T04:59:24;99095.59;;;0.73;95.32
77639;BME280;66802;52.574;14.398;2024-01-15T05:02:12;99099.81;;;0.76;94.75
77639;BME280;66802;52.574;14.398;2024-01-15T05:04:38;99088.91;;;0.79;93.87
77639;BME280;66802;52.574;14.398;2024-01-15T05:07:05;99102.03;;;0.80;94.83
77639;BME280;66802;52.574;14.398;2024-01-15T05:09:30;99104.81;;;0.79;95.27
77639;BME280;66802;52.574;14.398;2024-01-15T05:11:58;99110.13;;;0.79;95.19
77639;BME280;66802;52.574;14.398;2024-01-15T05:14:24;99115.31;;;0.80;96.03
77639;BME280;66802;52.574;14.398;2024-01-15T05:16:49;99104.28;;;0.75;96.46
77639;BME280;66802;52.574;14.398;2024-01-15T05:19:16;99110.13;;;0.79;96.39
77639;BME280;66802;52.574;14.398;2024-01-15T05:21:41;99095.19;;;0.78;95.63
77639;BME280;66802;52.574;14.398;2024-01-15T05:24:09;99098.69;;;0.78;95.89
77639;BME280;66802;52.574;14.398;2024-01-15T05:26:39;99097.84;;;0.78;95.31
77639;BME280;66802;52.574;14.398;2024-01-15T05:29:05;99093.94;;;0.82;95.89
77639;BME280;66802;52.574;14.398;2024-01-15T05:31:31;99091.47;;;0.90;94.32
77639;BME280;66802;52.574;14.398;2024-01-15T05:33:57;99092.16;;;0.92;93.79
77639;BME280;66802;52.574;14.398;2024-01-15T05:36:23;99080.69;;;0.91;94.32
77639;BME280;66802;52.574;14.398;2024-01-15T05:38:51;99075.53;;;0.90;93.91
77639;BME280;66802;52.574;14.398;2024-01-15T05:41:18;99074.28;;;0.94;93.45
77639;BME280;66802;52.574;14.398;2024-01-15T05:43:51;99070.53;;;0.96;92.13
77639;BME280;66802;52.574;14.398;2024-01-15T05:46:17;99075.00;;;0.96;92.44
77639;BME280;66802;52.574;14.398;2024-01-15T05:48:43;99075.56;;;0.99;91.53
77639;BME280;66802;52.574;14.398;2024-01-15T05:51:16;99085.91;;;1.02;91.05
77639;BME280;66802;52.574;14.398;2024-01-15T05:53:43;99077.38;;;0.99;91.55
77639;BME280;66802;52.574;14.398;2024-01-15T05:56:11;99080.47;;;1.04;91.29
77639;BME280;66802;52.574;14.398;2024-01-15T05:58:37;99071.06;;;1.00;91.64
77639;BME280;66802;52.574;14.398;2024-01-15T06:01:14;99066.22;;;1.05;91.35
77639;BME280;66802;52.574;14.398;2024-01-15T06:03:52;99067.31;;;1.02;91.70
77639;BME280;66802;52.574;14.398;2024-01-15T06:06:18;99064.66;;;1.02;91.47
77639;BME280;66802;52.574;14.398;2024-01-15T06:08:44;99060.59;;;0.98;92.87
77639;BME280;66802;52.574;14.398;2024-01-15T06:11:10;99060.00;;;0.85;94.50
77639;BME280;66802;52.574;14.398;2024-01-15T06:13:35;99055.63;;;0.75;96.32
77639;BME280;66802;52.574;14.398;2024-01-15T06:16:02;99055.03;;;0.71;97.48
77639;BME280;66802;52.574;14.398;2024-01-15T06:18:29;99052.53;;;0.69;96.89
77639;BME280;66802;52.574;14.398;2024-01-15T06:20:59;99060.94;;;0.75;95.89
77639;BME280;66802;52.574;14.398;2024-01-15T06:23:25;99061.63;;;0.77;95.72
77639;BME280;66802;52.574;14.398;2024-01-15T06:25:54;99058.72;;;0.80;95.65
77639;BME280;66802;52.574;14.398;2024-01-15T06:28:20;99053.97;;;0.83;95.17
77639;BME280;66802;52.574;14.398;2024-01-15T06:30:47;99042.53;;;0.83;96.06
77639;BME280;66802;52.574;14.398;2024-01-15T06:33:24;99047.81;;;0.83;94.36
77639;BME280;66802;52.574;14.398;2024-01-15T06:36:10;99046.72;;;0.85;94.87
77639;BME280;66802;52.574;14.398;2024-01-15T06:38:53;99049.94;;;0.89;94.16
77639;BME280;66802;52.574;14.398;2024-01-15T06:41:33;99064.19;;;0.88;95.17
77639;BME280;66802;52.574;14.398;2024-01-15T06:44:10;99059.84;;;0.87;95.16
77639;BME280;66802;52.574;14.398;2024-01-15T06:46:53;99073.09;;;0.77;96.42
77639;BME280;66802;52.574;14.398;2024-01-15T06:49:33;99065.44;;;0.84;96.22
77639;BME280;66802;52.574;14.398;2024-01-15T06:51:58;99054.13;;;0.82;96.25
77639;BME280;66802;52.574;14.398;2024-01-15T06:54:27;99052.88;;;0.86;95.81
77639;BME280;66802;52.574;14.398;2024-01-15T06:56:52;99064.59;;;0.83;96.49
77639;BME280;66802;52.574;14.398;2024-01-15T06:59:18;99061.81;;;0.85;96.46
77639;BME280;66802;52.574;14.398;2024-01-15T07:01:43;99063.91;;;0.91;95.56
77639;BME280;66802;52.574;14.398;2024-01-15T07:04:09;99050.50;;;0.92;95.60
77639;BME280;66802;52.574;14.398;2024-01-15T07:06:35;99046.75;;;0.95;94.82
77639;BME280;66802;52.574;14.398;2024-01-15T07:09:00;99053.28;;;0.91;94.58
77639;BME280;66802;52.574;14.398;2024-01-15T07:11:27;99051.22;;;0.94;94.99
77639;BME280;66802;52.574;14.398;2024-01-15T07:13:53;99055.44;;;0.97;94.56
77639;BME280;66802;52.574;14.398;2024-01-15T07:16:18;99055.56;;;0.95;95.33
77639;BME280;66802;52.574;14.398;2024-01-15T07:18:46;99053.28;;;0.91;95.79
77639;BME280;66802;52.574;14.398;2024-01-15T07:21:12;99058.63;;;0.91;95.25
77639;BME280;66802;52.574;14.398;2024-01-15T07:23:37;99066.06;;;0.97;94.60
77639;BME280;66802;52.574;14.398;2024-01-15T07:26:04;99065.22;;;0.96;94.65
77639;BME280;66802;52.574;14.398;2024-01-15T07:28:31;99065.75;;;1.00;94.95
77639;BME280;66802;52.574;14.398;2024-01-15T07:30:57;99067.31;;;1.02;94.75
77639;BME280;66802;52.574;14.398;2024-01-15T07:33:22;99069.56;;;0.97;94.29
77639;BME280;66802;52.574;14.398;2024-01-15T07:35:48;99085.03;;;0.92;95.22
77639;BME280;66802;52.574;14.398;2024-01-15T07:38:13;99095.09;;;0.89;96.67
77639;BME280;66802;52.574;14.398;2024-01-15T07:40:39;99093.41;;;0.88;97.33
77639;BME280;66802;52.574;14.398;2024-01-15T07:43:04;99103.34;;;0.86;96.76
77639;BME280;66802;52.574;14.398;2024-01-15T07:45:30;99110.03;;;0.90;96.72
77639;BME280;66802;52.574;14.398;2024-01-15T07:47:56;99127.78;;;0.89;96.90
77639;BME280;66802;52.574;14.398;2024-01-15T07:50:21;99132.28;;;0.89;96.67
77639;BME280;66802;52.574;14.398;2024-01-15T07:52:47;99140.38;;;0.87;97.83
77639;BME280;66802;52.574;14.398;2024-01-15T07:55:12;99132.22;;;0.79;99.25
77639;BME280;66802;52.574;14.398;2024-01-15T07:57:48;99126.75;;;0.71;99.61
77639;BME280;66802;52.574;14.398;2024-01-15T08:00:25;99123.50;;;0.67;100.00
77639;BME280;66802;52.574;14.398;2024-01-15T08:02:50;99120.97;;;0.66;100.00
77639;BME280;66802;52.574;14.398;2024-01-15T08:05:26;99110.63;;;0.63;100.00
77639;BME280;66802;52.574;14.398;2024-01-15T08:07:51;99116.38;;;0.68;100.00
77639;BME280;66802;52.574;14.398;2024-01-15T08:10:17;99111.78;;;0.70;100.00
77639;BME280;66802;52.574;14.398;2024-01-15T08:12:42;99115.88;;;0.74;100.00
77639;BME280;66802;52.574;14.398;2024-01-15T08:15:08;99111.94;;;0.78;100.00
77639;BME280;66802;52.574;14.398;2024-01-15T08:17:33;99111.94;;;0.78;100.00
77639;BME280;66802;52.574;14.398;2024-01-15T08:19:59;99123.16;;;0.82;100.00
77639;BME280;66802;52.574;14.398;2024-01-15T08:22:29;99136.06;;;0.86;100.00
77639;BME280;66802;52.574;14.398;2024-01-15T08:24:57;99120.38;;;0.83;99.97
77639;BME280;66802;52.574;14.398;2024-01-15T08:27:28;99125.28;;;0.88;99.99
77639;BME280;66802;52.574;14.398;2024-01-15T08:29:56;99129.34;;;0.92;100.00
77639;BME280;66802;52.574;14.398;2024-01-15T08:32:24;99126.13;;;0.88;100.00
77639;BME280;66802;52.574;14.398;2024-01-15T08:34:57;99107.41;;;0.90;100.00
77639;BME280;66802;52.574;14.398;2024-01-15T08:37:22;99117.88;;;0.91;99.59
77639;BME280;66802;52.574;14.398;2024-01-15T08:39:50;99114.38;;;0.91;99.41
77639;BME280;66802;52.574;14.398;2024-01-15T08:42:16;99106.59;;;0.99;99.36
77639;BME280;66802;52.574;14.398;2024-01-15T08:44:42;99106.75;;;0.97;98.75
77639;BME280;66802;52.574;14.398;2024-01-15T08:47:09;99121.44;;;1.01;98.70
77639;BME280;66802;52.574;14.398;2024-01-15T08:49:34;99121.16;;;1.04;98.27
77639;BME280;66802;52.574;14.398;2024-01-15T08:52:02;99112.50;;;1.12;97.81
77639;BME280;66802;52.574;14.398;2024-01-15T08:54:27;99127.22;;;1.16;97.31
77639;BME280;66802;52.574;14.398;2024-01-15T08:56:53;99131.56;;;1.17;96.76
77639;BME280;66802;52.574;14.398;2024-01-15T08:59:19;99127.38;;;1.24;95.88
77639;BME280;66802;52.574;14.398;2024-01-15T09:01:52;99134.41;;;1.35;94.23
77639;BME280;66802;52.574;14.398;2024-01-15T09:04:21;99149.25;;;1.37;93.37
77639;BME280;66802;52.574;14.398;2024-01-15T09:06:47;99139.84;;;1.33;94.62
77639;BME280;66802;52.574;14.398;2024-01-15T09:09:12;99144.19;;;1.34;93.44
77639;BME280;66802;52.574;14.398;2024-01-15T09:11:39;99136.22;;;1.34;93.07
77639;BME280;66802;52.574;14.398;2024-01-15T09:14:05;99143.94;;;1.37;93.19
77639;BME280;66802;52.574;14.398;2024-01-15T09:16:33;99151.47;;;1.32;92.31
77639;BME280;66802;52.574;14.398;2024-01-15T09:18:58;99142.13;;;1.38;91.08
77639;BME280;66802;52.574;14.398;2024-01-15T09:21:25;99163.66;;;1.44;91.14
77639;BME280;66802;52.574;14.398;2024-01-15T09:23:51;99127.28;;;1.45;90.87
77639;BME280;66802;52.574;14.398;2024-01-15T09:26:17;99148.19;;;1.59;91.58
77639;BME280;66802;52.574;14.398;2024-01-15T09:28:43;99153.38;;;1.70;90.51
77639;BME280;66802;52.574;14.398;2024-01-15T09:31:08;99141.06;;;1.79;88.25
77639;BME280;66802;52.574;14.398;2024-01-15T09:33:34;99155.34;;;1.78;87.00
77639;BME280;66802;52.574;14.398;2024-01-15T09:36:03;99165.00;;;1.79;88.21
77639;BME280;66802;52.574;14.398;2024-01-15T09:38:30;99173.72;;;1.81;88.47
77639;BME280;66802;52.574;14.398;2024-01-15T09:40:57;99155.09;;;1.81;87.75
77639;BME280;66802;52.574;14.398;2024-01-15T09:43:23;99149.47;;;1.84;87.27
77639;BME280;66802;52.574;14.398;2024-01-15T09:45:50;99141.66;;;1.82;87.48
77639;BME280;66802;52.574;14.398;2024-01-15T09:48:16;99152.69;;;1.88;88.26
77639;BME280;66802;52.574;14.398;2024-01-15T09:50:42;99158.28;;;1.84;88.26
77639;BME280;66802;52.574;14.398;2024-01-15T09:53:08;99154.38;;;1.79;88.58
77639;BME280;66802;52.574;14.398;2024-01-15T09:55:36;99154.22;;;1.71;89.66
77639;BME280;66802;52.574;14.398;2024-01-15T09:58:03;99164.44;;;1.66;91.17
77639;BME280;66802;52.574;14.398;2024-01-15T10:00:33;99154.75;;;1.65;91.20
77639;BME280;66802;52.574;14.398;2024-01-15T10:03:09;99151.38;;;1.63;91.84
77639;BME280;66802;52.574;14.398;2024-01-15T10:05:37;99169.47;;;1.69;91.59
77639;BME280;66802;52.574;14.398;2024-01-15T10:08:06;99170.00;;;1.63;90.97
77639;BME280;66802;52.574;14.398;2024-01-15T10:10:32;99169.97;;;1.53;92.11
77639;BME280;66802;52.574;14.398;2024-01-15T10:12:58;99172.34;;;1.46;91.93
77639;BME280;66802;52.574;14.398;2024-01-15T10:15:28;99168.31;;;1.52;93.48
77639;BME280;66802;52.574;14.398;2024-01-15T10:17:54;99170.72;;;1.65;93.90
77639;BME280;66802;52.574;14.398;2024-01-15T10:20:20;99154.09;;;1.82;93.96
77639;BME280;66802;52.574;14.398;2024-01-15T10:22:47;99163.34;;;1.88;92.39
77639;BME280;66802;52.574;14.398;2024-01-15T10:25:14;99146.41;;;1.89;90.98
77639;BME280;66802;52.574;14.398;2024-01-15T10:27:45;99154.78;;;1.84;89.95
77639;BME280;66802;52.574;14.398;2024-01-15T10:30:27;99148.47;;;1.75;89.62
77639;BME280;66802;52.574;14.398;2024-01-15T10:33:00;99135.88;;;1.68;89.37
77639;BME280;66802;52.574;14.398;2024-01-15T10:35:30;99122.97;;;1.63;89.60
77639;BME280;66802;52.574;14.398;2024-01-15T10:38:01;99137.84;;;1.75;89.23
77639;BME280;66802;52.574;14.398;2024-01-15T10:40:28;99124.00;;;1.81;87.17
77639;BME280;66802;52.574;14.398;2024-01-15T10:42:54;99121.22;;;1.83;88.22
77639;BME280;66802;52.574;14.398;2024-01-15T10:45:20;99124.41;;;1.87;87.64
77639;BME280;66802;52.574;14.398;2024-01-15T10:47:46;99124.72;;;1.83;87.71
77639;BME280;66802;52.574;14.398;2024-01-15T10:50:12;99132.81;;;1.92;86.94
77639;BME280;66802;52.574;14.398;2024-01-15T10:52:39;99123.75;;;1.94;86.86
77639;BME280;66802;52.574;14.398;2024-01-15T10:55:10;99134.50;;;2.02;87.42
77639;BME280;66802;52.574;14.398;2024-01-15T10:57:43;99136.91;;;2.05;86.46
77639;BME280;66802;52.574;14.398;2024-01-15T11:03:34;99129.06;;;2.04;86.10
77639;BME280;66802;52.574;14.398;2024-01-15T11:05:59;99125.69;;;2.02;86.36
77639;BME280;66802;52.574;14.398;2024-01-15T11:08:25;99118.56;;;2.02;86.12
77639;BME280;66802;52.574;14.398;2024-01-15T11:10:55;99124.97;;;2.00;86.30
77639;BME280;66802;52.574;14.398;2024-01-15T11:13:40;99122.59;;;1.97;85.80
77639;BME280;66802;52.574;14.398;2024-01-15T11:16:17;99118.13;;;1.88;87.09
77639;BME280;66802;52.574;14.398;2024-01-15T11:19:01;99117.72;;;1.92;87.02
77639;BME280;66802;52.574;14.398;2024-01-15T11:21:31;99118.41;;;1.94;86.96
77639;BME280;66802;52.574;14.398;2024-01-15T11:24:06;99129.72;;;1.96;87.22
77639;BME280;66802;52.574;14.398;2024-01-15T11:26:46;99137.44;;;1.99;86.56
77639;BME280;66802;52.574;14.398;2024-01-15T11:34:59;99145.69;;;1.96;88.52
77639;BME280;66802;52.574;14.398;2024-01-15T11:37:56;99145.69;;;1.96;89.04
77639;BME280;66802;52.574;14.398;2024-01-15T11:43:10;99148.66;;;1.93;89.45
77639;BME280;66802;52.574;14.398;2024-01-15T11:48:43;99151.59;;;2.09;89.35
77639;BME280;66802;52.574;14.398;2024-01-15T11:51:11;99143.91;;;2.16;88.59
77639;BME280;66802;52.574;14.398;2024-01-15T11:54:03;99145.59;;;2.27;87.25
77639;BME280;66802;52.574;14.398;2024-01-15T11:57:27;99137.88;;;2.24;87.62
77639;BME280;66802;52.574;14.398;2024-01-15T12:00:45;99135.91;;;2.35;86.24
77639;BME280;66802;52.574;14.398;2024-01-15T12:03:36;99132.25;;;2.36;85.55
77639;BME280;66802;52.574;14.398;2024-01-15T12:06:37;99142.19;;;2.34;85.44
77639;BME280;66802;52.574;14.398;2024-01-15T12:09:07;99140.25;;;2.36;84.52
77639;BME280;66802;52.574;14.398;2024-01-15T12:12:01;99144.59;;;2.37;84.40
77639;BME280;66802;52.574;14.398;2024-01-15T12:14:34;99160.41;;;2.29;84.24
77639;BME280;66802;52.574;14.398;2024-01-15T12:17:03;99153.56;;;2.27;83.54
77639;BME280;66802;52.574;14.398;2024-01-15T12:19:47;99159.44;;;2.30;82.96
77639;BME280;66802;52.574;14.398;2024-01-15T12:22:13;99149.50;;;2.32;82.19
77639;BME280;66802;52.574;14.398;2024-01-15T12:24:38;99148.38;;;2.25;80.22
77639;BME280;66802;52.574;14.398;2024-01-15T12:27:04;99155.78;;;2.22;82.02
77639;BME280;66802;52.574;14.398;2024-01-15T12:29:30;99163.91;;;2.20;81.08
77639;BME280;66802;52.574;14.398;2024-01-15T12:31:56;99165.19;;;2.26;80.94
77639;BME280;66802;52.574;14.398;2024-01-15T12:34:22;99158.31;;;2.33;79.15
77639;BME280;66802;52.574;14.398;2024-01-15T12:36:47;99155.63;;;2.42;79.43
77639;BME280;66802;52.574;14.398;2024-01-15T12:39:13;99157.59;;;2.40;78.88
77639;BME280;66802;52.574;14.398;2024-01-15T12:41:38;99157.06;;;2.37;78.71
77639;BME280;66802;52.574;14.398;2024-01-15T12:44:04;99145.72;;;2.25;78.14
77639;BME280;66802;52.574;14.398;2024-01-15T12:46:30;99158.72;;;2.18;78.82
77639;BME280;66802;52.574;14.398;2024-01-15T12:48:56;99170.34;;;2.17;79.70
77639;BME280;66802;52.574;14.398;2024-01-15T12:51:38;99178.34;;;2.17;78.87
77639;BME280;66802;52.574;14.398;2024-01-15T12:54:09;99185.91;;;2.12;82.34
77639;BME280;66802;52.574;14.398;2024-01-15T12:56:36;99175.00;;;2.15;84.03
77639;BME280;66802;52.574;14.398;2024-01-15T12:59:02;99186.91;;;2.11;85.24
77639;BME280;66802;52.574;14.398;2024-01-15T13:01:31;99175.81;;;2.06;85.58
77639;BME280;66802;52.574;14.398;2024-01-15T13:03:57;99181.84;;;1.99;86.77
77639;BME280;66802;52.574;14.398;2024-01-15T13:06:22;99186.31;;;1.89;88.07
77639;BME280;66802;52.574;14.398;2024-01-15T13:08:48;99190.06;;;1.86;88.74
77639;BME280;66802;52.574;14.398;2024-01-15T13:11:14;99191.91;;;1.86;88.68
77639;BME280;66802;52.574;14.398;2024-01-15T13:13:49;99191.06;;;1.85;88.29
77639;BME280;66802;52.574;14.398;2024-01-15T13:16:15;99195.69;;;1.83;88.69
77639;BME280;66802;52.574;14.398;2024-01-15T13:19:12;99190.91;;;1.87;89.77
77639;BME280;66802;52.574;14.398;2024-01-15T13:21:48;99195.41;;;1.86;88.58
77639;BME280;66802;52.574;14.398;2024-01-15T13:24:17;99201.16;;;1.81;88.75
77639;BME280;66802;52.574;14.398;2024-01-15T13:26:46;99210.09;;;1.80;89.04
77639;BME280;66802;52.574;14.398;2024-01-15T13:29:32;99209.69;;;1.85;89.42
77639;BME280;66802;52.574;14.398;2024-01-15T13:35:32;99221.47;;;1.92;88.72
77639;BME280;66802;52.574;14.398;2024-01-15T13:44:56;99233.81;;;2.03;88.94
77639;BME280;66802;52.574;14.398;2024-01-15T13:53:37;99244.44;;;1.93;87.61
77639;BME280;66802;52.574;14.398;2024-01-15T13:56:08;99243.41;;;1.84;88.16
77639;BME280;66802;52.574;14.398;2024-01-15T13:58:38;99266.81;;;1.81;88.48
77639;BME280;66802;52.574;14.398;2024-01-15T14:01:06;99270.69;;;1.77;87.80
77639;BME280;66802;52.574;14.398;2024-01-15T14:03:32;99260.75;;;1.69;88.40
77639;BME280;66802;52.574;14.398;2024-01-15T14:06:01;99255.09;;;1.63;89.02
77639;BME280;66802;52.574;14.398;2024-01-15T14:09:12;99266.78;;;1.71;88.29
77639;BME280;66802;52.574;14.398;2024-01-15T14:15:10;99263.53;;;1.68;88.09
77639;BME280;66802;52.574;14.398;2024-01-15T14:18:09;99281.59;;;1.74;87.01
77639;BME280;66802;52.574;14.398;2024-01-15T14:20:49;99289.03;;;1.70;88.00
77639;BME280;66802;52.574;14.398;2024-01-15T14:23:20;99281.91;;;1.71;88.04
77639;BME280;66802;52.574;14.398;2024-01-15T14:25:56;99310.44;;;1.69;87.66
77639;BME280;66802;52.574;14.398;2024-01-15T14:28:39;99306.34;;;1.65;87.76
77639;BME280;66802;52.574;14.398;2024-01-15T14:41:17;99335.13;;;1.08;93.59
77639;BME280;66802;52.574;14.398;2024-01-15T14:44:02;99333.28;;;0.88;95.00
77639;BME280;66802;52.574;14.398;2024-01-15T14:46:56;99343.97;;;0.77;96.10
77639;BME280;66802;52.574;14.398;2024-01-15T15:11:41;99395.47;;;0.54;96.85
77639;BME280;66802;52.574;14.398;2024-01-15T15:14:07;99402.84;;;0.50;95.96
77639;BME280;66802;52.574;14.398;2024-01-15T15:29:45;99413.06;;;0.55;94.48
77639;BME280;66802;52.574;14.398;2024-01-15T15:35:45;99426.50;;;0.53;94.34
77639;BME280;66802;52.574;14.398;2024-01-15T15:44:42;99443.00;;;0.46;94.33
77639;BME280;66802;52.574;14.398;2024-01-15T15:47:22;99439.78;;;0.42;94.77
77639;BME280;66802;52.574;14.398;2024-01-15T15:50:25;99451.09;;;0.44;94.74
77639;BME280;66802;52.574;14.398;2024-01-15T15:53:12;99454.75;;;0.43;94.31
77639;BME280;66802;52.574;14.398;2024-01-15T15:55:38;99446.28;;;0.38;94.60
77639;BME280;66802;52.574;14.398;2024-01-15T15:58:05;99467.75;;;0.35;94.28
77639;BME280;66802;52.574;14.398;2024-01-15T16:00:32;99472.09;;;0.36;93.95
77639;BME280;66802;52.574;14.398;2024-01-15T16:03:05;99472.81;;;0.38;94.03
77639;BME280;66802;52.574;14.398;2024-01-15T16:05:37;99478.13;;;0.27;93.88
77639;BME280;66802;52.574;14.398;2024-01-15T16:08:06;99483.94;;;0.32;94.01
77639;BME280;66802;52.574;14.398;2024-01-15T16:14:29;99500.72;;;0.32;93.36
77639;BME280;66802;52.574;14.398;2024-01-15T16:16:56;99498.75;;;0.34;93.38
77639;BME280;66802;52.574;14.398;2024-01-15T16:19:36;99498.06;;;0.32;93.39
77639;BME280;66802;52.574;14.398;2024-01-15T17:03:27;99548.59;;;0.31;87.14
77639;BME280;66802;52.574;14.398;2024-01-15T17:05:54;99559.19;;;0.20;87.30
77639;BME280;66802;52.574;14.398;2024-01-15T17:08:32;99571.22;;;0.24;87.21
77639;BME280;66802;52.574;14.398;2024-01-15T17:11:07;99569.81;;;0.31;87.35
77639;BME280;66802;52.574;14.398;2024-01-15T17:14:15;99569.94;;;0.29;85.51
77639;BME280;66802;52.574;14.398;2024-01-15T17:16:50;99577.28;;;0.26;86.33
77639;BME280;66802;52.574;14.398;2024-01-15T17:19:19;99586.56;;;0.20;86.97
77639;BME280;66802;52.574;14.398;2024-01-15T17:21:55;99588.38;;;0.20;87.15
77639;BME280;66802;52.574;14.398;2024-01-15T17:24:21;99589.59;;;0.27;86.52
77639;BME280;66802;52.574;14.398;2024-01-15T17:26:47;99597.31;;;0.30;85.21
77639;BME280;66802;52.574;14.398;2024-01-15T17:29:12;99597.53;;;0.27;84.78
77639;BME280;66802;52.574;14.398;2024-01-15T17:31:38;99601.66;;;0.31;84.21
77639;BME280;66802;52.574;14.398;2024-01-15T17:34:06;99589.81;;;0.24;84.13
